createdAt,value
2023-02-06T00:01:42.283Z,76.54
2023-02-06T00:04:12.034Z,76.51
2023-02-06T00:06:40.595Z,76.40
2023-02-06T00:09:09.418Z,76.47
2023-02-06T00:11:37.986Z,76.38
2023-02-06T00:14:07.072Z,76.35
2023-02-06T00:16:36.558Z,76.38
2023-02-06T00:19:05.701Z,76.30
2023-02-06T00:21:35.468Z,76.27
2023-02-06T00:24:04.958Z,76.13
2023-02-06T00:26:33.420Z,76.21
2023-02-06T00:29:01.993Z,76.05
2023-02-06T00:31:30.783Z,76.08
2023-02-06T00:33:59.249Z,76.00
2023-02-06T00:36:27.662Z,75.93
2023-02-06T00:38:57.384Z,76.36
2023-02-06T00:41:25.783Z,76.69
2023-02-06T00:43:54.125Z,76.70
2023-02-06T00:46:22.582Z,76.65
2023-02-06T00:48:51.021Z,76.56
2023-02-06T00:51:19.344Z,76.17
2023-02-06T00:53:50.140Z,75.93
2023-02-06T00:56:20.737Z,75.91
2023-02-06T00:58:49.114Z,76.24
2023-02-06T01:01:17.556Z,76.00
2023-02-06T01:03:46.100Z,76.06
2023-02-06T01:06:14.510Z,76.19
2023-02-06T01:08:42.908Z,75.99
2023-02-06T01:11:12.324Z,75.88
2023-02-06T01:13:42.919Z,75.94
2023-02-06T01:16:13.010Z,76.14
2023-02-06T01:18:41.593Z,76.22
2023-02-06T01:21:10.439Z,76.12
2023-02-06T01:23:39.403Z,76.15
2023-02-06T01:26:08.164Z,75.97
2023-02-06T01:28:37.393Z,75.77
2023-02-06T01:31:12.935Z,75.66
2023-02-06T01:33:42.130Z,75.72
2023-02-06T01:36:11.485Z,75.53
2023-02-06T01:38:40.690Z,75.46
2023-02-06T01:41:10.141Z,76.00
2023-02-06T01:43:42.030Z,75.75
2023-02-06T01:46:12.496Z,75.69
2023-02-06T01:48:45.115Z,75.75
2023-02-06T01:51:19.926Z,75.56
2023-02-06T01:53:52.566Z,75.12
2023-02-06T01:56:23.701Z,75.26
2023-02-06T01:58:54.939Z,75.30
2023-02-06T02:01:24.667Z,75.51
2023-02-06T02:03:57.528Z,75.33
2023-02-06T02:06:27.774Z,75.16
2023-02-06T02:08:58.470Z,74.79
2023-02-06T02:11:31.414Z,74.89
2023-02-06T02:14:00.435Z,75.26
2023-02-06T02:16:43.928Z,75.31
2023-02-06T02:19:43.941Z,75.22
2023-02-06T02:22:32.305Z,74.95
2023-02-06T02:25:22.199Z,75.06
2023-02-06T02:28:12.201Z,75.15
2023-02-06T02:31:09.292Z,75.34
2023-02-06T02:34:14.581Z,74.74
2023-02-06T02:36:52.113Z,74.66
2023-02-06T02:39:31.150Z,74.78
2023-02-06T02:42:04.972Z,74.52
2023-02-06T02:44:38.992Z,74.38
2023-02-06T02:47:13.364Z,74.54
2023-02-06T02:49:43.813Z,74.34
2023-02-06T02:52:13.615Z,74.36
2023-02-06T02:54:41.961Z,74.48
2023-02-06T02:57:15.365Z,74.64
2023-02-06T02:59:46.566Z,74.75
2023-02-06T03:02:19.922Z,74.51
2023-02-06T03:04:52.675Z,74.46
2023-02-06T03:07:29.508Z,74.48
2023-02-06T03:10:06.675Z,74.67
2023-02-06T03:12:45.094Z,74.38
2023-02-06T03:15:23.196Z,74.16
2023-02-06T03:18:00.740Z,74.64
2023-02-06T03:20:32.808Z,74.29
2023-02-06T03:23:05.280Z,74.74
2023-02-06T03:25:37.332Z,75.15
2023-02-06T03:28:09.196Z,74.97
2023-02-06T03:30:40.038Z,74.89
2023-02-06T03:33:11.860Z,74.66
2023-02-06T03:35:41.333Z,74.43
2023-02-06T03:38:11.216Z,74.30
2023-02-06T03:40:42.074Z,74.40
2023-02-06T03:43:18.573Z,74.14
2023-02-06T03:45:51.750Z,74.14
2023-02-06T03:48:25.570Z,73.96
2023-02-06T03:50:56.610Z,73.61
2023-02-06T03:53:27.691Z,73.70
2023-02-06T03:56:01.898Z,74.07
2023-02-06T03:58:30.946Z,74.11
2023-02-06T04:01:01.334Z,74.03
2023-02-06T04:03:29.833Z,74.12
2023-02-06T04:05:58.850Z,73.96
2023-02-06T04:08:28.554Z,73.68
2023-02-06T04:10:56.896Z,74.01
2023-02-06T04:13:25.217Z,73.92
2023-02-06T04:15:56.220Z,73.78
2023-02-06T04:18:25.010Z,73.85
2023-02-06T04:20:53.418Z,73.70
2023-02-06T04:23:21.919Z,73.54
2023-02-06T04:25:51.605Z,73.88
2023-02-06T04:28:19.968Z,73.82
2023-02-06T04:30:49.069Z,73.71
2023-02-06T04:33:17.463Z,73.57
2023-02-06T04:35:45.721Z,73.42
2023-02-06T04:38:14.223Z,73.35
2023-02-06T04:40:42.576Z,73.42
2023-02-06T04:43:12.332Z,73.55
2023-02-06T04:45:41.876Z,73.34
2023-02-06T04:48:10.190Z,73.14
2023-02-06T04:50:38.518Z,73.40
2023-02-06T04:53:06.923Z,73.35
2023-02-06T04:55:36.705Z,73.18
2023-02-06T04:58:05.241Z,73.81
2023-02-06T05:00:35.485Z,74.06
2023-02-06T05:03:04.531Z,73.92
2023-02-06T05:05:32.985Z,73.88
2023-02-06T05:08:01.422Z,73.78
2023-02-06T05:10:29.781Z,74.15
2023-02-06T05:12:58.116Z,74.39
2023-02-06T05:15:26.470Z,74.13
2023-02-06T05:17:56.745Z,74.10
2023-02-06T05:20:25.071Z,74.41
2023-02-06T05:22:53.442Z,74.33
2023-02-06T05:25:21.784Z,74.23
2023-02-06T05:27:51.345Z,74.25
2023-02-06T05:30:20.257Z,74.07
2023-02-06T05:32:57.936Z,74.04
2023-02-06T05:35:26.277Z,74.11
2023-02-06T05:37:54.571Z,73.64
2023-02-06T05:40:22.897Z,73.65
2023-02-06T05:42:51.688Z,74.03
2023-02-06T05:45:24.335Z,74.18
2023-02-06T05:47:53.712Z,73.71
2023-02-06T05:50:23.542Z,73.40
2023-02-06T05:52:53.217Z,73.62
2023-02-06T05:55:21.499Z,73.64
2023-02-06T05:57:49.867Z,73.51
2023-02-06T06:00:18.769Z,73.40
2023-02-06T06:02:47.080Z,73.70
2023-02-06T06:05:15.443Z,74.02
2023-02-06T06:07:45.206Z,73.54
2023-02-06T06:10:13.666Z,73.78
2023-02-06T06:12:42.026Z,73.93
2023-02-06T06:15:11.581Z,74.00
2023-02-06T06:17:39.885Z,73.95
2023-02-06T06:20:08.631Z,74.24
2023-02-06T06:22:37.490Z,74.00
2023-02-06T06:25:08.013Z,73.99
2023-02-06T06:27:36.338Z,73.92
2023-02-06T06:30:05.136Z,74.35
2023-02-06T06:32:33.429Z,74.46
2023-02-06T06:35:01.801Z,74.55
2023-02-06T06:37:30.219Z,74.39
2023-02-06T06:39:58.572Z,74.36
2023-02-06T06:42:28.271Z,74.13
2023-02-06T06:44:56.620Z,73.79
2023-02-06T06:47:25.146Z,73.93
2023-02-06T06:49:53.826Z,73.87
2023-02-06T06:52:25.453Z,74.06
2023-02-06T06:54:54.301Z,74.02
2023-02-06T06:57:22.923Z,74.16
2023-02-06T06:59:52.948Z,73.94
2023-02-06T07:02:21.240Z,74.27
2023-02-06T07:04:49.493Z,73.92
2023-02-06T07:07:17.845Z,73.99
2023-02-06T07:09:46.236Z,74.00
2023-02-06T07:12:14.571Z,74.14
2023-02-06T07:14:42.845Z,73.89
2023-02-06T07:17:12.650Z,73.74
2023-02-06T07:19:41.207Z,73.65
2023-02-06T07:22:09.530Z,73.54
2023-02-06T07:24:37.861Z,73.99
2023-02-06T07:27:06.277Z,73.54
2023-02-06T07:29:34.608Z,73.98
2023-02-06T07:32:02.978Z,73.55
2023-02-06T07:34:32.642Z,73.50
2023-02-06T07:37:01.752Z,73.58
2023-02-06T07:39:30.546Z,73.60
2023-02-06T07:41:58.831Z,73.50
2023-02-06T07:44:27.432Z,73.51
2023-02-06T07:46:56.978Z,73.51
2023-02-06T07:49:25.388Z,73.64
2023-02-06T07:51:55.037Z,73.97
2023-02-06T07:54:23.465Z,73.85
2023-02-06T07:56:51.757Z,73.99
2023-02-06T07:59:20.294Z,73.92
2023-02-06T08:01:48.598Z,73.43
2023-02-06T08:04:17.038Z,73.90
2023-02-06T08:06:46.985Z,73.75
2023-02-06T08:09:18.175Z,73.70
2023-02-06T08:11:46.561Z,73.64
2023-02-06T08:14:14.906Z,73.84
2023-02-06T08:16:43.355Z,73.58
2023-02-06T08:19:12.368Z,73.74
2023-02-06T08:21:40.693Z,73.51
2023-02-06T08:24:11.822Z,73.47
2023-02-06T08:26:41.642Z,73.34
2023-02-06T08:29:10.035Z,73.66
2023-02-06T08:31:40.670Z,73.48
2023-02-06T08:34:12.313Z,73.76
2023-02-06T08:36:43.121Z,73.65
2023-02-06T08:39:14.435Z,73.99
2023-02-06T08:41:45.270Z,73.66
2023-02-06T08:44:16.058Z,73.48
2023-02-06T08:46:45.848Z,73.85
2023-02-06T08:49:16.195Z,74.09
2023-02-06T08:51:44.966Z,74.17
2023-02-06T08:54:15.762Z,74.52
2023-02-06T08:56:45.916Z,74.22
2023-02-06T08:59:15.633Z,74.19
2023-02-06T09:01:45.750Z,73.99
2023-02-06T09:04:15.291Z,73.92
2023-02-06T09:06:45.840Z,73.36
2023-02-06T09:09:14.264Z,73.96
2023-02-06T09:11:43.265Z,73.75
2023-02-06T09:14:16.444Z,73.39
2023-02-06T09:16:45.362Z,73.33
2023-02-06T09:19:14.163Z,73.15
2023-02-06T09:21:42.869Z,72.98
2023-02-06T09:24:11.543Z,73.22
2023-02-06T09:26:58.190Z,73.05
2023-02-06T09:29:31.413Z,73.00
2023-02-06T09:32:00.741Z,73.27
2023-02-06T09:34:29.954Z,73.00
2023-02-06T09:36:58.390Z,73.43
2023-02-06T09:39:27.124Z,73.25
2023-02-06T09:42:00.791Z,73.24
2023-02-06T09:44:33.619Z,73.26
2023-02-06T09:47:07.212Z,73.31
2023-02-06T09:49:39.277Z,73.37
2023-02-06T09:52:17.860Z,73.40
2023-02-06T09:54:54.715Z,73.17
2023-02-06T09:57:35.939Z,73.12
2023-02-06T10:00:12.941Z,73.20
2023-02-06T10:03:07.986Z,73.12
2023-02-06T10:05:48.749Z,73.19
2023-02-06T10:08:23.811Z,73.00
2023-02-06T10:10:55.428Z,72.87
2023-02-06T10:13:34.082Z,72.81
2023-02-06T10:16:07.301Z,72.60
2023-02-06T10:18:41.262Z,72.49
2023-02-06T10:21:20.502Z,72.44
2023-02-06T10:23:57.680Z,72.46
2023-02-06T10:26:26.099Z,72.45
2023-02-06T10:28:56.973Z,72.75
2023-02-06T10:31:44.938Z,72.69
2023-02-06T10:34:33.825Z,72.59
2023-02-06T10:37:18.025Z,72.64
2023-02-06T10:40:02.710Z,72.89
2023-02-06T10:42:44.917Z,72.65
2023-02-06T10:45:25.858Z,72.93
2023-02-06T10:48:02.952Z,72.45
2023-02-06T10:50:35.249Z,72.19
2023-02-06T10:53:07.363Z,72.44
2023-02-06T10:55:46.066Z,72.23
2023-02-06T10:58:20.142Z,72.02
2023-02-06T11:00:51.212Z,72.12
2023-02-06T11:03:25.790Z,71.85
2023-02-06T11:05:54.684Z,72.14
2023-02-06T11:08:27.265Z,71.91
2023-02-06T11:10:56.479Z,71.60
2023-02-06T11:13:28.288Z,72.06
2023-02-06T11:16:03.907Z,71.81
2023-02-06T11:18:37.282Z,71.96
2023-02-06T11:21:06.518Z,71.84
2023-02-06T11:23:35.164Z,71.89
2023-02-06T11:26:10.718Z,71.34
2023-02-06T11:28:42.490Z,71.45
2023-02-06T11:31:11.332Z,71.00
2023-02-06T11:33:47.316Z,70.71
2023-02-06T11:36:27.056Z,70.85
2023-02-06T11:38:58.213Z,70.62
2023-02-06T11:41:27.134Z,71.14
2023-02-06T11:44:02.420Z,70.30
2023-02-06T11:46:35.157Z,70.53
2023-02-06T11:49:08.275Z,70.81
2023-02-06T11:51:49.394Z,70.34
2023-02-06T11:54:28.071Z,70.63
2023-02-06T11:57:00.352Z,69.98
2023-02-06T11:59:29.668Z,70.23
2023-02-06T12:02:01.416Z,70.62
2023-02-06T12:04:35.144Z,70.18
2023-02-06T12:07:11.746Z,70.04
2023-02-06T12:09:40.347Z,70.44
2023-02-06T12:12:20.934Z,70.54
2023-02-06T12:14:54.868Z,70.22
2023-02-06T12:17:28.376Z,69.81
2023-02-06T12:20:07.097Z,70.03
2023-02-06T12:22:42.255Z,70.68
2023-02-06T12:25:40.632Z,70.60
2023-02-06T12:28:14.756Z,70.50
2023-02-06T12:30:52.339Z,70.33
2023-02-06T12:33:25.615Z,70.38
2023-02-06T12:35:59.542Z,70.11
2023-02-06T12:38:36.775Z,70.02
2023-02-06T12:41:19.440Z,70.14
2023-02-06T12:43:56.280Z,69.98
2023-02-06T12:46:27.945Z,70.08
2023-02-06T12:49:03.422Z,69.71
2023-02-06T12:51:40.952Z,69.83
2023-02-06T12:54:17.227Z,69.86
2023-02-06T12:56:51.173Z,69.76
2023-02-06T12:59:57.163Z,69.47
2023-02-06T13:02:49.204Z,69.57
2023-02-06T13:05:23.646Z,69.38
2023-02-06T13:07:56.263Z,69.37
2023-02-06T13:10:27.170Z,69.65
2023-02-06T13:12:57.032Z,69.50
2023-02-06T13:15:27.499Z,69.37
2023-02-06T13:17:56.232Z,69.31
2023-02-06T13:20:26.520Z,69.28
2023-02-06T13:23:18.182Z,69.19
2023-02-06T13:25:49.614Z,69.05
2023-02-06T13:28:56.235Z,68.81
2023-02-06T13:31:35.415Z,69.15
2023-02-06T13:34:09.151Z,69.13
2023-02-06T13:36:47.740Z,69.26
2023-02-06T13:39:31.469Z,69.19
2023-02-06T13:42:23.657Z,69.09
2023-02-06T13:44:53.619Z,69.18
2023-02-06T13:48:11.551Z,68.84
2023-02-06T13:50:58.553Z,68.80
2023-02-06T13:53:54.671Z,68.70
2023-02-06T13:56:51.426Z,68.63
2023-02-06T13:59:23.914Z,68.60
2023-02-06T14:01:53.254Z,68.59
2023-02-06T14:04:26.141Z,68.38
2023-02-06T14:07:18.851Z,68.20
2023-02-06T14:10:19.778Z,68.29
2023-02-06T14:13:01.715Z,68.28
2023-02-06T14:15:36.987Z,68.17
2023-02-06T14:18:30.367Z,67.92
2023-02-06T14:21:09.363Z,67.80
2023-02-06T14:24:14.925Z,67.78
2023-02-06T14:27:00.898Z,67.99
2023-02-06T14:29:42.114Z,68.08
2023-02-06T14:32:29.124Z,67.68
2023-02-06T14:35:17.055Z,67.67
2023-02-06T14:38:06.509Z,67.63
2023-02-06T14:40:39.613Z,67.48
2023-02-06T14:43:14.769Z,67.48
2023-02-06T14:46:04.238Z,67.63
2023-02-06T14:48:40.049Z,67.54
2023-02-06T14:51:15.956Z,67.29
2023-02-06T14:53:53.577Z,67.57
2023-02-06T14:56:27.698Z,67.66
2023-02-06T14:58:56.688Z,67.99
2023-02-06T15:01:32.679Z,67.68
2023-02-06T15:04:12.062Z,67.70
2023-02-06T15:06:42.514Z,67.63
2023-02-06T15:09:24.167Z,67.29
2023-02-06T15:11:54.507Z,67.23
2023-02-06T15:14:24.882Z,66.97
2023-02-06T15:16:59.200Z,67.05
2023-02-06T15:19:29.595Z,67.01
2023-02-06T15:22:01.924Z,66.92
2023-02-06T15:24:57.449Z,66.54
2023-02-06T15:27:30.167Z,66.91
2023-02-06T15:29:59.298Z,66.83
2023-02-06T15:32:31.110Z,66.81
2023-02-06T15:35:00.415Z,66.59
2023-02-06T15:37:30.380Z,66.59
2023-02-06T15:40:06.054Z,66.88
2023-02-06T15:42:34.836Z,66.80
2023-02-06T15:45:03.378Z,66.93
2023-02-06T15:47:33.820Z,66.90
2023-02-06T15:50:02.273Z,66.81
2023-02-06T15:52:36.827Z,66.80
2023-02-06T15:55:05.920Z,66.48
2023-02-06T15:57:36.411Z,66.53
2023-02-06T16:00:09.521Z,66.50
2023-02-06T16:02:41.786Z,66.39
2023-02-06T16:05:25.150Z,66.20
2023-02-06T16:07:54.498Z,66.40
2023-02-06T16:10:26.104Z,66.52
2023-02-06T16:12:57.284Z,66.50
2023-02-06T16:15:28.989Z,66.47
2023-02-06T16:18:01.049Z,66.73
2023-02-06T16:20:39.620Z,66.36
2023-02-06T16:23:26.899Z,66.42
2023-02-06T16:26:05.357Z,66.39
2023-02-06T16:28:40.182Z,66.65
2023-02-06T16:31:14.595Z,66.39
2023-02-06T16:33:46.490Z,66.72
2023-02-06T16:36:16.327Z,66.62
2023-02-06T16:38:54.063Z,66.55
2023-02-06T16:41:29.997Z,66.72
2023-02-06T16:43:59.613Z,66.42
2023-02-06T16:46:28.937Z,66.26
2023-02-06T16:49:00.666Z,66.35
2023-02-06T16:51:31.268Z,66.41
2023-02-06T16:53:59.783Z,66.59
2023-02-06T16:56:28.337Z,66.34
2023-02-06T16:58:56.964Z,66.35
2023-02-06T17:01:29.532Z,66.32
2023-02-06T17:03:59.524Z,66.30
2023-02-06T17:06:30.985Z,66.59
2023-02-06T17:09:04.464Z,66.53
2023-02-06T17:11:34.863Z,66.61
2023-02-06T17:14:03.844Z,66.51
2023-02-06T17:16:33.705Z,66.44
2023-02-06T17:19:03.662Z,66.73
2023-02-06T17:21:33.173Z,66.29
2023-02-06T17:24:01.768Z,66.16
2023-02-06T17:26:30.174Z,66.49
2023-02-06T17:28:58.644Z,66.17
2023-02-06T17:31:27.120Z,66.26
2023-02-06T17:33:55.554Z,66.59
2023-02-06T17:36:29.536Z,66.55
2023-02-06T17:38:59.142Z,66.66
2023-02-06T17:41:28.133Z,66.53
2023-02-06T17:43:56.548Z,66.35
2023-02-06T17:46:24.976Z,66.69
2023-02-06T17:48:53.353Z,66.44
2023-02-06T17:51:21.966Z,66.53
2023-02-06T17:53:53.688Z,66.25
2023-02-06T17:56:22.804Z,66.15
2023-02-06T17:58:51.192Z,66.41
2023-02-06T18:01:22.987Z,66.15
2023-02-06T18:03:51.778Z,66.15
2023-02-06T18:06:21.582Z,66.26
2023-02-06T18:08:49.991Z,66.27
2023-02-06T18:11:21.745Z,66.05
2023-02-06T18:13:50.938Z,65.99
2023-02-06T18:16:21.160Z,65.81
2023-02-06T18:18:50.656Z,65.97
2023-02-06T18:21:21.747Z,65.65
2023-02-06T18:23:50.251Z,65.59
2023-02-06T18:26:20.414Z,65.80
2023-02-06T18:28:48.809Z,65.87
2023-02-06T18:31:26.720Z,65.33
2023-02-06T18:33:56.296Z,65.78
2023-02-06T18:36:25.543Z,65.70
2023-02-06T18:38:54.355Z,65.41
2023-02-06T18:41:41.857Z,65.44
2023-02-06T18:44:11.643Z,65.60
2023-02-06T18:46:40.507Z,65.53
2023-02-06T18:49:08.959Z,65.77
2023-02-06T18:51:37.729Z,65.84
2023-02-06T18:54:07.738Z,65.41
2023-02-06T18:56:37.818Z,65.64
2023-02-06T18:59:06.910Z,65.68
2023-02-06T19:01:35.531Z,65.96
2023-02-06T19:04:04.056Z,65.88
2023-02-06T19:06:35.540Z,65.97
2023-02-06T19:09:07.061Z,66.24
2023-02-06T19:11:37.934Z,65.75
2023-02-06T19:14:08.357Z,65.91
2023-02-06T19:16:38.425Z,66.07
2023-02-06T19:19:08.663Z,65.79
2023-02-06T19:21:37.053Z,66.06
2023-02-06T19:24:06.400Z,65.99
2023-02-06T19:26:35.016Z,66.13
2023-02-06T19:29:05.186Z,65.96
2023-02-06T19:31:34.930Z,66.21
2023-02-06T19:34:03.697Z,66.16
2023-02-06T19:36:32.442Z,66.04
2023-02-06T19:39:02.947Z,66.10
2023-02-06T19:41:33.343Z,66.04
2023-02-06T19:44:05.709Z,66.06
2023-02-06T19:46:35.174Z,66.14
2023-02-06T19:49:05.613Z,65.94
2023-02-06T19:51:38.019Z,65.75
2023-02-06T19:54:06.540Z,65.85
2023-02-06T19:56:39.329Z,65.64
2023-02-06T19:59:18.004Z,65.85
2023-02-06T20:01:47.178Z,66.11
2023-02-06T20:04:16.322Z,65.57
2023-02-06T20:06:45.588Z,65.62
2023-02-06T20:09:16.357Z,65.89
2023-02-06T20:11:44.884Z,65.66
2023-02-06T20:14:14.657Z,65.64
2023-02-06T20:16:43.769Z,65.68
2023-02-06T20:19:14.242Z,65.81
2023-02-06T20:21:45.077Z,65.63
2023-02-06T20:24:18.428Z,65.88
2023-02-06T20:26:47.735Z,65.73
2023-02-06T20:29:21.583Z,65.65
2023-02-06T20:31:50.904Z,66.05
2023-02-06T20:34:20.315Z,65.78
2023-02-06T20:36:49.220Z,66.11
2023-02-06T20:39:18.003Z,66.11
2023-02-06T20:41:46.898Z,66.20
2023-02-06T20:44:15.467Z,65.78
2023-02-06T20:46:45.332Z,65.80
2023-02-06T20:49:15.877Z,66.15
2023-02-06T20:51:44.481Z,65.81
2023-02-06T20:54:13.077Z,66.07
2023-02-06T20:56:42.363Z,65.82
2023-02-06T20:59:14.340Z,65.65
2023-02-06T21:01:43.094Z,65.83
2023-02-06T21:04:14.573Z,65.67
2023-02-06T21:06:43.428Z,65.88
2023-02-06T21:09:12.743Z,65.72
2023-02-06T21:11:45.195Z,65.60
2023-02-06T21:14:16.133Z,65.77
2023-02-06T21:16:44.777Z,65.88
2023-02-06T21:19:16.836Z,65.94
2023-02-06T21:21:46.289Z,65.54
2023-02-06T21:24:15.787Z,65.76
2023-02-06T21:26:44.801Z,66.16
2023-02-06T21:29:14.143Z,65.75
2023-02-06T21:31:43.134Z,65.90
2023-02-06T21:34:17.441Z,66.02
2023-02-06T21:36:46.516Z,65.81
2023-02-06T21:39:17.755Z,66.09
2023-02-06T21:41:46.609Z,66.04
2023-02-06T21:44:14.988Z,66.02
2023-02-06T21:46:43.362Z,66.19
2023-02-06T21:49:11.866Z,66.51
2023-02-06T21:51:41.721Z,66.38
2023-02-06T21:54:10.269Z,66.66
2023-02-06T21:56:39.405Z,66.60
2023-02-06T21:59:08.532Z,66.61
2023-02-06T22:01:39.020Z,66.44
2023-02-06T22:04:08.545Z,66.33
2023-02-06T22:06:37.411Z,66.60
2023-02-06T22:09:09.030Z,66.53
2023-02-06T22:11:40.085Z,66.99
2023-02-06T22:14:12.073Z,66.82
2023-02-06T22:16:40.578Z,66.73
2023-02-06T22:19:09.612Z,66.72
2023-02-06T22:21:38.145Z,66.83
2023-02-06T22:24:09.447Z,66.90
2023-02-06T22:26:39.539Z,66.89
2023-02-06T22:29:09.644Z,67.14
2023-02-06T22:31:40.312Z,67.10
2023-02-06T22:34:11.775Z,67.26
2023-02-06T22:36:40.433Z,67.03
2023-02-06T22:39:13.212Z,67.05
2023-02-06T22:41:43.694Z,66.85
2023-02-06T22:44:16.211Z,67.19
2023-02-06T22:46:46.469Z,67.13
2023-02-06T22:49:15.497Z,67.05
2023-02-06T22:51:44.727Z,66.89
2023-02-06T22:54:14.955Z,66.92
2023-02-06T22:56:44.097Z,67.28
2023-02-06T22:59:14.506Z,67.08
2023-02-06T23:01:44.808Z,67.07
2023-02-06T23:04:14.981Z,67.10
2023-02-06T23:06:44.043Z,66.91
2023-02-06T23:09:16.761Z,66.96
2023-02-06T23:11:45.829Z,67.31
2023-02-06T23:14:20.361Z,67.04
2023-02-06T23:16:49.495Z,67.29
2023-02-06T23:19:19.194Z,66.82
2023-02-06T23:21:49.764Z,67.16
2023-02-06T23:24:20.344Z,67.30
2023-02-06T23:26:51.263Z,67.48
2023-02-06T23:29:21.325Z,67.35
2023-02-06T23:31:49.865Z,67.34
2023-02-06T23:34:19.280Z,67.44
2023-02-06T23:36:48.306Z,67.08
2023-02-06T23:39:17.026Z,67.08
2023-02-06T23:41:46.738Z,67.34
2023-02-06T23:44:15.075Z,67.25
2023-02-06T23:46:43.556Z,67.26
2023-02-06T23:49:12.083Z,67.24
2023-02-06T23:51:40.525Z,67.36
2023-02-06T23:54:09.618Z,67.27
2023-02-06T23:56:38.381Z,67.64
2023-02-06T23:59:08.102Z,67.33
